Time;durP1;ratioP1;P1;durP2;ratioP2;P2;SDS_P1;SDS_P2;PMS_P1;PMS_P2;Temp;Humidity;BMP_temperature;BMP_pressure;BME280_temperature;BME280_humidity;BME280_pressure;Samples;Min_cycle;Max_cycle;Signal;HPM_P1;HPM_P2
2023/12/27 00:03:04;;;;;;;4.93;1.65;;;;;;;;;;6102196;23;20177;-95
2023/12/27 00:06:17;;;;;;;407.98;188.77;;;;;;;;;;6101983;23;20174;-92
2023/12/27 00:09:29;;;;;;;561.35;242.45;;;;;;;;;;6100887;23;20174;-94
2023/12/27 00:12:44;;;;;;;266.80;97.55;;;;;;;;;;6100358;23;20151;-93
2023/12/27 00:15:58;;;;;;;77.88;33.72;;;;;;;;;;6114685;23;20171;-95
2023/12/27 00:19:14;;;;;;;21.92;7.93;;;;;;;;;;6102909;23;20195;-93
2023/12/27 00:22:31;;;;;;;10.82;3.70;;;;;;;;;;6103659;23;20222;-92
2023/12/27 00:25:47;;;;;;;8.27;2.92;;;;;;;;;;6101681;23;20503;-96
2023/12/27 00:29:04;;;;;;;5.07;2.53;;;;;;;;;;6102914;23;20177;-96
2023/12/27 00:32:16;;;;;;;4.38;2.05;;;;;;;;;;6103205;23;20211;-93
2023/12/27 00:35:30;;;;;;;3.95;2.05;;;;;;;;;;6099696;23;20178;-93
2023/12/27 00:38:45;;;;;;;6.85;2.20;;;;;;;;;;6099076;23;20195;-94
2023/12/27 00:42:01;;;;;;;4.95;2.30;;;;;;;;;;6103051;23;20191;-94
2023/12/27 00:45:14;;;;;;;7.10;3.28;;;;;;;;;;6103530;23;20157;-93
2023/12/27 00:48:27;;;;;;;8.45;2.60;;;;;;;;;;6102712;23;20171;-95
2023/12/27 00:51:39;;;;;;;22.58;7.88;;;;;;;;;;6104218;23;20202;-94
2023/12/27 00:54:54;;;;;;;5.05;2.10;;;;;;;;;;6103696;23;20519;-94
2023/12/27 00:58:09;;;;;;;7.22;2.33;;;;;;;;;;6103785;23;20203;-94
2023/12/27 01:01:29;;;;;;;5.90;2.15;;;;;;;;;;6104391;23;20242;-94
2023/12/27 01:04:42;;;;;;;6.38;2.35;;;;;;;;;;6104460;23;20154;-93
2023/12/27 01:07:54;;;;;;;8.23;2.15;;;;;;;;;;6103467;23;20174;-95
2023/12/27 01:11:08;;;;;;;6.57;2.47;;;;;;;;;;6103172;23;20646;-95
2023/12/27 01:14:20;;;;;;;6.43;2.10;;;;;;;;;;6103856;23;20328;-95
2023/12/27 01:17:38;;;;;;;5.45;2.28;;;;;;;;;;6104610;23;20174;-95
2023/12/27 01:20:52;;;;;;;7.50;2.20;;;;;;;;;;6104737;23;20179;-96
2023/12/27 01:24:04;;;;;;;5.22;2.30;;;;;;;;;;6104361;23;20195;-94
2023/12/27 01:27:18;;;;;;;4.32;1.60;;;;;;;;;;6103889;23;20179;-95
2023/12/27 01:30:31;;;;;;;4.88;2.22;;;;;;;;;;6104923;23;20175;-94
2023/12/27 01:33:45;;;;;;;6.78;2.35;;;;;;;;;;6090045;23;20219;-95
2023/12/27 01:36:58;;;;;;;5.03;2.08;;;;;;;;;;6090336;23;20166;-95
2023/12/27 01:40:13;;;;;;;8.50;2.40;;;;;;;;;;6105544;23;20154;-96
2023/12/27 01:43:25;;;;;;;6.45;1.90;;;;;;;;;;6104173;23;20190;-96
2023/12/27 01:46:38;;;;;;;7.55;1.80;;;;;;;;;;6100847;23;20170;-96
2023/12/27 01:49:52;;;;;;;5.38;1.90;;;;;;;;;;6098397;23;20218;-95
2023/12/27 01:53:05;;;;;;;7.72;1.90;;;;;;;;;;6099441;23;20157;-95
2023/12/27 01:56:17;;;;;;;6.07;1.40;;;;;;;;;;6100631;23;20230;-96
2023/12/27 01:59:29;;;;;;;7.63;1.65;;;;;;;;;;6102432;23;20169;-94
2023/12/27 02:02:41;;;;;;;4.88;1.63;;;;;;;;;;6101473;23;20220;-95
2023/12/27 02:05:56;;;;;;;6.82;1.63;;;;;;;;;;6101705;23;20162;-96
2023/12/27 02:09:08;;;;;;;4.63;1.80;;;;;;;;;;6100415;23;20169;-95
2023/12/27 02:12:27;;;;;;;7.00;2.40;;;;;;;;;;6100496;23;20206;-93
2023/12/27 02:15:39;;;;;;;5.07;1.60;;;;;;;;;;6097447;23;20169;-94
2023/12/27 02:18:51;;;;;;;4.97;1.50;;;;;;;;;;6098763;23;20154;-95
2023/12/27 02:22:05;;;;;;;3.67;1.50;;;;;;;;;;6100159;23;20177;-95
2023/12/27 02:25:18;;;;;;;6.07;1.50;;;;;;;;;;6098889;23;20244;-94
2023/12/27 02:28:30;;;;;;;4.03;1.52;;;;;;;;;;6100123;23;20218;-96
2023/12/27 02:31:43;;;;;;;4.05;1.50;;;;;;;;;;6101614;23;20657;-94
2023/12/27 02:34:55;;;;;;;5.63;1.65;;;;;;;;;;6101535;23;20154;-93
2023/12/27 02:38:08;;;;;;;9.27;1.80;;;;;;;;;;6101216;23;20650;-94
2023/12/27 02:41:21;;;;;;;2.83;1.58;;;;;;;;;;6101595;23;20162;-94
2023/12/27 02:44:33;;;;;;;4.50;1.50;;;;;;;;;;6099157;23;20154;-94
2023/12/27 02:47:46;;;;;;;3.40;1.48;;;;;;;;;;6100442;23;20150;-96
2023/12/27 02:50:58;;;;;;;7.78;1.17;;;;;;;;;;6100258;23;20169;-95
2023/12/27 02:54:11;;;;;;;5.80;1.50;;;;;;;;;;6100360;23;20170;-93
2023/12/27 02:57:24;;;;;;;3.70;1.05;;;;;;;;;;6102153;23;20150;-93
2023/12/27 03:00:37;;;;;;;2.83;1.70;;;;;;;;;;6102893;23;20154;-95
2023/12/27 03:03:50;;;;;;;2.95;1.30;;;;;;;;;;6086472;23;20170;-95
2023/12/27 03:07:02;;;;;;;3.67;1.40;;;;;;;;;;6100677;23;20255;-94
2023/12/27 03:10:14;;;;;;;4.45;1.70;;;;;;;;;;6100152;23;20219;-93
2023/12/27 03:13:28;;;;;;;4.70;1.60;;;;;;;;;;6102080;23;20205;-95
2023/12/27 03:16:40;;;;;;;3.33;1.30;;;;;;;;;;6102442;23;20191;-94
2023/12/27 03:19:52;;;;;;;5.10;1.52;;;;;;;;;;6101861;23;20169;-95
2023/12/27 03:23:04;;;;;;;4.15;1.33;;;;;;;;;;6102485;23;20194;-95
2023/12/27 03:26:17;;;;;;;2.38;1.25;;;;;;;;;;6103177;23;20203;-96
2023/12/27 03:29:35;;;;;;;5.65;1.67;;;;;;;;;;6102948;23;20193;-96
2023/12/27 03:32:51;;;;;;;3.80;1.40;;;;;;;;;;6105262;23;20194;-96
2023/12/27 03:36:06;;;;;;;5.03;1.60;;;;;;;;;;6101673;23;20169;-93
2023/12/27 03:39:18;;;;;;;5.70;1.48;;;;;;;;;;6103093;23;20182;-95
2023/12/27 03:42:31;;;;;;;6.75;1.70;;;;;;;;;;6101113;23;20211;-95
2023/12/27 03:45:45;;;;;;;5.15;1.80;;;;;;;;;;6097851;23;20214;-94
2023/12/27 03:48:58;;;;;;;4.10;1.35;;;;;;;;;;6097429;23;20169;-94
2023/12/27 03:52:10;;;;;;;4.18;1.55;;;;;;;;;;6097277;23;20200;-95
2023/12/27 03:55:22;;;;;;;4.65;1.63;;;;;;;;;;6097609;23;20218;-94
2023/12/27 03:58:34;;;;;;;5.28;1.45;;;;;;;;;;6097677;23;20169;-94
2023/12/27 04:01:47;;;;;;;6.22;1.50;;;;;;;;;;6097999;23;20177;-92
2023/12/27 04:04:59;;;;;;;5.55;1.48;;;;;;;;;;6099410;23;20207;-94
2023/12/27 04:08:11;;;;;;;5.22;1.55;;;;;;;;;;6099541;23;20173;-95
2023/12/27 04:11:23;;;;;;;6.32;1.60;;;;;;;;;;6101542;23;20166;-95
2023/12/27 04:14:36;;;;;;;2.53;1.40;;;;;;;;;;6102318;23;20153;-93
2023/12/27 04:17:50;;;;;;;4.35;1.67;;;;;;;;;;6099644;23;20569;-94
2023/12/27 04:21:02;;;;;;;3.92;1.55;;;;;;;;;;6099316;23;20169;-93
2023/12/27 04:24:14;;;;;;;3.30;1.58;;;;;;;;;;6101011;23;20174;-94
2023/12/27 04:27:26;;;;;;;3.30;1.50;;;;;;;;;;6100972;23;20157;-94
2023/12/27 04:30:38;;;;;;;6.50;1.33;;;;;;;;;;6101599;23;20170;-95
2023/12/27 04:33:53;;;;;;;2.42;1.45;;;;;;;;;;6118276;23;20177;-95
2023/12/27 04:37:11;;;;;;;5.03;1.48;;;;;;;;;;6102608;23;20154;-96
2023/12/27 04:40:22;;;;;;;3.17;1.42;;;;;;;;;;6101656;23;20154;-95
2023/12/27 04:43:35;;;;;;;5.88;1.52;;;;;;;;;;6102358;23;20225;-95
2023/12/27 04:46:48;;;;;;;10.68;1.92;;;;;;;;;;6102882;23;20154;-95
2023/12/27 04:50:03;;;;;;;7.88;1.58;;;;;;;;;;6103560;23;20200;-95
2023/12/27 04:53:17;;;;;;;4.47;1.45;;;;;;;;;;6117707;23;20178;-95
2023/12/27 04:56:30;;;;;;;11.25;2.30;;;;;;;;;;6102696;23;20246;-94
2023/12/27 04:59:42;;;;;;;5.15;1.95;;;;;;;;;;6102630;23;20226;-93
2023/12/27 05:02:54;;;;;;;3.30;1.80;;;;;;;;;;6101512;23;20170;-94
2023/12/27 05:06:09;;;;;;;5.97;1.92;;;;;;;;;;6102705;23;20177;-94
2023/12/27 05:09:21;;;;;;;4.35;1.70;;;;;;;;;;6102918;23;20166;-95
2023/12/27 05:12:33;;;;;;;4.32;1.60;;;;;;;;;;6102108;23;20197;-95
2023/12/27 05:15:48;;;;;;;4.85;1.88;;;;;;;;;;6099398;23;20173;-94
2023/12/27 05:19:00;;;;;;;3.25;1.58;;;;;;;;;;6098984;23;20166;-94
2023/12/27 05:22:13;;;;;;;8.90;1.98;;;;;;;;;;6101178;23;20173;-93
2023/12/27 05:25:25;;;;;;;6.30;1.80;;;;;;;;;;6099718;23;20170;-94
2023/12/27 12:09:44;;;;;;;16.40;4.60;;;;;;;;;;6045475;23;20195;-90
2023/12/27 12:12:57;;;;;;;8.15;3.40;;;;;;;;;;6096659;23;20232;-91
2023/12/27 12:16:10;;;;;;;14.32;2.40;;;;;;;;;;6071857;23;20323;-91
2023/12/27 12:19:22;;;;;;;5.18;2.72;;;;;;;;;;6091862;23;20236;-94
2023/12/27 12:22:34;;;;;;;4.47;2.03;;;;;;;;;;6095479;23;20177;-92
2023/12/27 12:25:49;;;;;;;4.53;1.08;;;;;;;;;;6114090;23;20221;-93
2023/12/27 12:29:07;;;;;;;2.45;1.20;;;;;;;;;;6096422;23;20166;-92
2023/12/27 12:32:18;;;;;;;6.18;1.60;;;;;;;;;;6097963;23;20229;-95
2023/12/27 12:35:30;;;;;;;6.85;2.30;;;;;;;;;;6097949;23;20222;-93
2023/12/27 12:38:47;;;;;;;10.93;3.08;;;;;;;;;;6100021;23;20198;-94
2023/12/27 12:42:01;;;;;;;11.02;2.70;;;;;;;;;;6097488;23;20170;-91
2023/12/27 12:45:12;;;;;;;4.57;1.77;;;;;;;;;;6100377;23;20652;-95
2023/12/27 12:48:25;;;;;;;6.68;1.90;;;;;;;;;;6097472;23;20174;-96
2023/12/27 12:51:37;;;;;;;4.63;1.77;;;;;;;;;;6097131;23;20153;-93
2023/12/27 12:54:56;;;;;;;6.50;1.52;;;;;;;;;;6099404;23;20175;-94
2023/12/27 13:01:40;;;;;;;6.30;1.67;;;;;;;;;;6101701;23;20197;-93
2023/12/27 13:04:52;;;;;;;6.47;1.60;;;;;;;;;;6098400;23;20170;-95
2023/12/27 13:08:09;;;;;;;5.25;2.10;;;;;;;;;;6099459;23;20174;-91
2023/12/27 13:11:28;;;;;;;12.10;2.10;;;;;;;;;;6101428;23;20226;-94
2023/12/27 13:14:53;;;;;;;4.97;1.90;;;;;;;;;;6102923;23;20178;-93
2023/12/27 13:21:31;;;;;;;6.10;1.88;;;;;;;;;;6104475;23;20170;-92
2023/12/27 13:28:19;;;;;;;8.85;2.47;;;;;;;;;;6103983;23;20227;-94
2023/12/27 13:31:42;;;;;;;5.43;2.00;;;;;;;;;;6102804;23;20474;-93
2023/12/27 13:34:54;;;;;;;9.93;3.15;;;;;;;;;;6100650;23;20199;-94
2023/12/27 13:38:05;;;;;;;3.95;1.67;;;;;;;;;;6101308;23;20170;-94
2023/12/27 13:41:18;;;;;;;4.70;1.92;;;;;;;;;;6102870;23;20218;-93
2023/12/27 13:44:32;;;;;;;4.40;1.85;;;;;;;;;;6099727;23;20174;-94
2023/12/27 13:51:24;;;;;;;8.30;1.95;;;;;;;;;;6103907;23;20185;-91
2023/12/27 13:54:38;;;;;;;7.57;2.80;;;;;;;;;;6100312;23;20186;-95
2023/12/27 13:57:51;;;;;;;5.72;2.00;;;;;;;;;;6101044;23;20226;-93
2023/12/27 14:01:04;;;;;;;3.60;1.50;;;;;;;;;;6101188;23;20263;-94
2023/12/27 14:04:33;;;;;;;4.55;1.70;;;;;;;;;;6100999;23;20177;-92
2023/12/27 14:07:50;;;;;;;6.43;2.10;;;;;;;;;;6099249;23;20169;-94
2023/12/27 14:11:05;;;;;;;7.28;1.90;;;;;;;;;;6101103;23;20210;-94
2023/12/27 14:14:19;;;;;;;9.95;2.28;;;;;;;;;;6100726;23;20652;-94
2023/12/27 14:17:39;;;;;;;18.15;8.52;;;;;;;;;;6101942;23;20234;-93
2023/12/27 14:24:24;;;;;;;9.10;3.20;;;;;;;;;;6118801;23;20178;-94
2023/12/27 15:00:28;;;;;;;14.05;3.88;;;;;;;;;;6041299;23;20218;-92
2023/12/27 15:03:39;;;;;;;9.75;3.05;;;;;;;;;;6084900;23;20169;-94
2023/12/27 15:06:52;;;;;;;15.98;6.05;;;;;;;;;;6096971;23;20178;-90
2023/12/27 15:13:29;;;;;;;15.13;6.32;;;;;;;;;;6098461;23;20202;-94
2023/12/27 15:16:44;;;;;;;18.42;7.93;;;;;;;;;;6096015;23;20174;-94
2023/12/27 15:19:55;;;;;;;14.77;5.90;;;;;;;;;;6096235;23;20177;-92
2023/12/27 15:23:06;;;;;;;20.08;7.90;;;;;;;;;;6096920;23;20157;-93
2023/12/27 15:26:19;;;;;;;17.40;7.68;;;;;;;;;;6097311;23;20170;-93
2023/12/27 15:29:32;;;;;;;22.02;6.97;;;;;;;;;;6096963;23;20170;-94
2023/12/27 15:32:46;;;;;;;13.30;5.45;;;;;;;;;;6099059;23;20162;-91
2023/12/27 15:35:59;;;;;;;9.23;4.18;;;;;;;;;;6100285;23;20161;-93
2023/12/27 15:39:11;;;;;;;16.45;6.53;;;;;;;;;;6097935;23;20662;-90
2023/12/27 15:42:23;;;;;;;20.42;8.63;;;;;;;;;;6098643;23;20177;-92
2023/12/27 15:45:35;;;;;;;27.10;12.00;;;;;;;;;;6099647;23;20174;-93
2023/12/27 15:48:53;;;;;;;23.02;8.80;;;;;;;;;;6101299;23;20222;-91
2023/12/27 15:52:06;;;;;;;19.85;8.10;;;;;;;;;;6099225;23;20486;-94
2023/12/27 15:55:21;;;;;;;14.30;6.30;;;;;;;;;;6099241;23;20229;-90
2023/12/27 16:02:02;;;;;;;14.70;5.70;;;;;;;;;;6103017;23;20266;-94
2023/12/27 16:05:16;;;;;;;6.88;3.92;;;;;;;;;;6100697;23;20177;-91
2023/12/27 16:08:28;;;;;;;8.15;3.60;;;;;;;;;;6102599;23;20170;-91
2023/12/27 16:11:43;;;;;;;10.35;3.70;;;;;;;;;;6101121;23;20242;-94
2023/12/27 16:14:55;;;;;;;11.38;4.03;;;;;;;;;;6100198;23;20181;-92
2023/12/27 16:18:07;;;;;;;7.82;3.13;;;;;;;;;;6102479;23;20218;-93
2023/12/27 16:21:22;;;;;;;6.20;3.80;;;;;;;;;;6101813;23;20174;-93
2023/12/27 16:24:35;;;;;;;9.80;4.05;;;;;;;;;;6102002;23;20618;-92
2023/12/27 16:27:46;;;;;;;11.38;4.32;;;;;;;;;;6101499;23;20157;-89
2023/12/27 16:31:00;;;;;;;13.03;4.10;;;;;;;;;;6101681;23;20242;-93
2023/12/27 16:34:13;;;;;;;8.50;3.58;;;;;;;;;;6103028;23;20251;-92
2023/12/27 16:37:43;;;;;;;11.65;3.58;;;;;;;;;;6119669;23;20193;-92
2023/12/27 16:40:57;;;;;;;11.97;4.57;;;;;;;;;;6102131;23;20161;-89
2023/12/27 16:47:36;;;;;;;11.13;5.53;;;;;;;;;;6104038;23;20175;-93
2023/12/27 16:50:49;;;;;;;10.13;5.30;;;;;;;;;;6103817;23;20169;-91
2023/12/27 16:54:01;;;;;;;12.00;4.67;;;;;;;;;;6104256;23;20194;-91
2023/12/27 16:57:16;;;;;;;12.93;4.82;;;;;;;;;;6103396;23;20174;-90
2023/12/27 17:00:34;;;;;;;20.88;7.55;;;;;;;;;;6103658;23;20177;-92
2023/12/27 17:03:49;;;;;;;16.00;4.63;;;;;;;;;;6102283;23;20250;-92
2023/12/27 17:07:02;;;;;;;11.68;4.43;;;;;;;;;;6102190;23;20154;-90
2023/12/27 17:10:14;;;;;;;11.97;4.90;;;;;;;;;;6101082;23;20695;-91
2023/12/27 17:13:29;;;;;;;13.73;5.30;;;;;;;;;;6102130;23;20259;-92
2023/12/27 17:16:41;;;;;;;14.30;5.60;;;;;;;;;;6100697;23;20218;-92
2023/12/27 17:19:55;;;;;;;12.87;5.03;;;;;;;;;;6116218;23;20153;-90
2023/12/27 17:23:10;;;;;;;14.47;5.00;;;;;;;;;;6100686;23;20195;-91
2023/12/27 17:26:24;;;;;;;26.43;11.73;;;;;;;;;;6101678;23;20210;-93
2023/12/27 17:29:39;;;;;;;17.07;6.10;;;;;;;;;;6102034;23;20150;-92
2023/12/27 17:32:53;;;;;;;15.13;5.60;;;;;;;;;;6103421;23;20178;-92
2023/12/27 17:36:05;;;;;;;16.70;5.73;;;;;;;;;;6102717;23;20246;-95
2023/12/27 17:39:18;;;;;;;31.83;10.10;;;;;;;;;;6102989;23;20169;-92
2023/12/27 17:42:33;;;;;;;18.47;6.43;;;;;;;;;;6116041;23;20174;-92
2023/12/27 17:46:00;;;;;;;18.33;5.77;;;;;;;;;;6100886;23;20166;-92
2023/12/27 17:49:17;;;;;;;11.53;5.30;;;;;;;;;;6102736;23;20172;-95
2023/12/27 17:52:31;;;;;;;13.53;4.77;;;;;;;;;;6102347;23;20635;-92
2023/12/27 17:55:45;;;;;;;14.83;5.17;;;;;;;;;;6101397;23;20174;-91
2023/12/27 17:58:58;;;;;;;15.17;4.67;;;;;;;;;;6100962;23;20178;-91
2023/12/27 18:05:36;;;;;;;11.73;4.83;;;;;;;;;;6101091;23;20174;-91
2023/12/27 18:08:49;;;;;;;19.17;6.27;;;;;;;;;;6100192;23;20154;-92
2023/12/27 18:12:03;;;;;;;19.17;5.77;;;;;;;;;;6100210;23;20626;-93
2023/12/27 18:15:17;;;;;;;16.20;5.87;;;;;;;;;;6100097;23;20213;-94
2023/12/27 18:18:29;;;;;;;23.27;8.70;;;;;;;;;;6100483;23;20203;-93
2023/12/27 18:21:45;;;;;;;81.20;26.60;;;;;;;;;;6100888;23;20238;-93
2023/12/27 18:24:58;;;;;;;37.93;13.63;;;;;;;;;;6115823;23;20174;-91
2023/12/27 18:28:11;;;;;;;31.83;10.80;;;;;;;;;;6101320;23;20161;-93
2023/12/27 18:31:24;;;;;;;30.57;10.67;;;;;;;;;;6099621;23;20206;-93
2023/12/27 18:34:39;;;;;;;24.67;8.77;;;;;;;;;;6116604;23;20252;-91
2023/12/27 18:37:57;;;;;;;15.00;6.63;;;;;;;;;;6100863;23;20158;-92
2023/12/27 18:41:09;;;;;;;15.03;6.07;;;;;;;;;;6100741;23;20199;-93
2023/12/27 18:44:22;;;;;;;16.63;7.10;;;;;;;;;;6100495;23;20181;-94
2023/12/27 18:47:38;;;;;;;31.80;12.23;;;;;;;;;;6099372;23;20170;-93
2023/12/27 18:50:51;;;;;;;22.00;8.50;;;;;;;;;;6099602;23;20158;-92
2023/12/27 18:54:12;;;;;;;14.67;6.47;;;;;;;;;;6099716;23;20251;-93
2023/12/27 18:57:24;;;;;;;18.57;6.77;;;;;;;;;;6100149;23;20186;-94
2023/12/27 19:04:04;;;;;;;20.03;7.53;;;;;;;;;;6100350;23;20177;-93
2023/12/27 19:07:16;;;;;;;24.13;9.53;;;;;;;;;;6085819;23;20170;-91
2023/12/27 19:10:41;;;;;;;21.20;8.17;;;;;;;;;;6100852;23;20170;-92
2023/12/27 19:13:53;;;;;;;15.80;6.53;;;;;;;;;;6099829;23;20238;-93
2023/12/27 19:17:09;;;;;;;17.50;6.40;;;;;;;;;;6099217;23;20166;-91
2023/12/27 19:20:21;;;;;;;17.90;7.37;;;;;;;;;;6099980;23;20190;-91
2023/12/27 19:23:33;;;;;;;19.23;6.87;;;;;;;;;;6100015;23;20170;-93
2023/12/27 19:26:47;;;;;;;12.77;5.90;;;;;;;;;;6099508;23;20211;-93
2023/12/27 19:29:59;;;;;;;14.17;5.73;;;;;;;;;;6115899;23;20211;-92
2023/12/27 19:33:12;;;;;;;14.53;5.93;;;;;;;;;;6101689;23;20173;-92
2023/12/27 19:36:33;;;;;;;11.10;4.73;;;;;;;;;;6101320;23;20178;-93
2023/12/27 19:39:45;;;;;;;11.10;4.37;;;;;;;;;;6101832;23;20170;-93
2023/12/27 19:43:00;;;;;;;14.53;6.90;;;;;;;;;;6102237;23;20197;-92
2023/12/27 19:46:12;;;;;;;10.33;5.03;;;;;;;;;;6102913;23;20171;-92
2023/12/27 19:49:25;;;;;;;12.00;5.73;;;;;;;;;;6101959;23;20157;-93
2023/12/27 19:52:37;;;;;;;11.00;4.50;;;;;;;;;;6102383;23;20173;-93
2023/12/27 19:55:50;;;;;;;10.30;4.87;;;;;;;;;;6102223;23;20181;-91
2023/12/27 19:59:03;;;;;;;14.50;5.57;;;;;;;;;;6103328;23;20209;-93
2023/12/27 20:02:15;;;;;;;18.03;6.17;;;;;;;;;;6101551;23;20188;-91
2023/12/27 20:05:28;;;;;;;29.13;7.80;;;;;;;;;;6101211;23;20211;-93
2023/12/27 20:08:40;;;;;;;10.33;5.03;;;;;;;;;;6100585;23;20169;-91
2023/12/27 20:11:52;;;;;;;13.03;5.83;;;;;;;;;;6099621;23;20242;-93
2023/12/27 20:15:08;;;;;;;23.50;9.23;;;;;;;;;;6098593;23;20254;-91
2023/12/27 20:18:20;;;;;;;19.97;8.43;;;;;;;;;;6100539;23;20222;-93
2023/12/27 21:33:11;;;;;;;12.80;6.50;;;;;;;;;;6073112;23;20230;-94
2023/12/27 21:36:25;;;;;;;12.97;6.20;;;;;;;;;;6071327;23;20174;-93
2023/12/27 21:39:42;;;;;;;14.80;7.13;;;;;;;;;;6057069;23;20180;-94
2023/12/27 21:42:54;;;;;;;17.67;6.80;;;;;;;;;;6068294;23;20175;-93
2023/12/27 21:46:06;;;;;;;14.83;6.30;;;;;;;;;;6070184;23;20154;-93
2023/12/27 21:49:19;;;;;;;13.73;6.50;;;;;;;;;;6071673;23;20180;-92
2023/12/27 21:52:31;;;;;;;16.17;7.00;;;;;;;;;;6071605;23;20157;-92
2023/12/27 21:55:43;;;;;;;13.10;7.07;;;;;;;;;;6070874;23;20194;-93
2023/12/27 21:58:57;;;;;;;11.93;6.30;;;;;;;;;;6070700;23;20154;-92
2023/12/27 22:02:11;;;;;;;15.60;6.43;;;;;;;;;;6073576;23;20175;-92
2023/12/27 22:05:25;;;;;;;14.17;6.20;;;;;;;;;;6073332;23;20174;-94
2023/12/27 22:08:37;;;;;;;16.67;6.53;;;;;;;;;;6072576;23;20235;-93
2023/12/27 22:11:50;;;;;;;12.60;5.87;;;;;;;;;;6072433;23;20191;-92
2023/12/27 22:15:02;;;;;;;44.73;18.90;;;;;;;;;;6072217;23;20246;-93
2023/12/27 22:18:14;;;;;;;14.63;5.80;;;;;;;;;;6071187;23;20321;-93
2023/12/27 22:21:29;;;;;;;15.27;5.30;;;;;;;;;;6072596;23;20175;-94
2023/12/27 22:24:41;;;;;;;15.23;5.87;;;;;;;;;;6071559;23;20159;-92
2023/12/27 22:27:54;;;;;;;12.60;5.53;;;;;;;;;;6071297;23;20235;-93
2023/12/27 22:31:06;;;;;;;12.33;6.40;;;;;;;;;;6073028;23;20508;-93
2023/12/27 22:34:19;;;;;;;13.07;5.57;;;;;;;;;;6071478;23;20191;-94
2023/12/27 22:37:33;;;;;;;14.63;5.97;;;;;;;;;;6072720;23;20166;-94
2023/12/27 22:40:46;;;;;;;12.57;5.87;;;;;;;;;;6058110;23;20150;-94
2023/12/27 22:43:58;;;;;;;14.83;6.00;;;;;;;;;;6073462;23;20163;-95
2023/12/27 22:47:11;;;;;;;16.67;6.20;;;;;;;;;;6073371;23;20176;-95
2023/12/27 22:50:24;;;;;;;16.60;6.17;;;;;;;;;;6073531;23;20203;-94
2023/12/27 22:53:39;;;;;;;14.27;6.57;;;;;;;;;;6070518;23;20154;-93
2023/12/27 22:56:51;;;;;;;13.47;6.00;;;;;;;;;;6072197;23;20180;-95
2023/12/27 23:00:10;;;;;;;12.93;5.60;;;;;;;;;;6073672;23;20171;-91
2023/12/27 23:03:23;;;;;;;11.03;5.70;;;;;;;;;;6071222;23;20170;-93
2023/12/27 23:06:36;;;;;;;13.30;6.00;;;;;;;;;;6054171;23;20212;-94
2023/12/27 23:09:50;;;;;;;12.90;6.03;;;;;;;;;;6070663;23;20169;-93
2023/12/27 23:13:04;;;;;;;13.07;5.83;;;;;;;;;;6069834;23;20149;-94
2023/12/27 23:16:17;;;;;;;14.67;6.07;;;;;;;;;;6068860;23;20254;-95
2023/12/27 23:19:29;;;;;;;20.70;6.60;;;;;;;;;;6069597;23;20211;-89
2023/12/27 23:22:41;;;;;;;13.97;7.47;;;;;;;;;;6069738;23;20216;-90
2023/12/27 23:25:58;;;;;;;17.93;8.47;;;;;;;;;;6072039;23;20172;-90
2023/12/27 23:29:10;;;;;;;14.80;6.87;;;;;;;;;;6072727;23;20177;-93
2023/12/27 23:32:22;;;;;;;27.33;7.33;;;;;;;;;;6071220;23;20193;-95
2023/12/27 23:35:34;;;;;;;19.07;7.13;;;;;;;;;;6071068;23;20198;-91
2023/12/27 23:38:46;;;;;;;24.83;7.37;;;;;;;;;;6070651;23;20615;-92
2023/12/27 23:41:59;;;;;;;14.20;7.60;;;;;;;;;;6070403;23;20219;-92
2023/12/27 23:45:12;;;;;;;20.47;7.90;;;;;;;;;;6053718;23;20171;-93
2023/12/27 23:48:24;;;;;;;16.03;7.50;;;;;;;;;;6068492;23;20178;-94
2023/12/27 23:51:36;;;;;;;19.13;7.40;;;;;;;;;;6071440;23;20158;-94
2023/12/27 23:54:49;;;;;;;28.20;8.73;;;;;;;;;;6071173;23;20236;-92
2023/12/27 23:58:05;;;;;;;30.47;9.47;;;;;;;;;;6071903;23;20170;-92
